createdAt,value
2023-12-09T00:01:28.022Z,100276.06
2023-12-09T00:03:55.904Z,100275.88
2023-12-09T00:06:25.339Z,100274.03
2023-12-09T00:08:53.239Z,100278.34
2023-12-09T00:11:21.408Z,100284.00
2023-12-09T00:13:49.138Z,100303.44
2023-12-09T00:16:17.972Z,100285.16
2023-12-09T00:18:45.740Z,100288.50
2023-12-09T00:21:13.823Z,100283.63
2023-12-09T00:23:47.650Z,100281.91
2023-12-09T00:26:16.292Z,100290.81
2023-12-09T00:28:43.977Z,100281.13
2023-12-09T00:31:11.629Z,100280.94
2023-12-09T00:33:39.398Z,100290.03
2023-12-09T00:36:07.676Z,100291.84
2023-12-09T00:38:35.398Z,100281.13
2023-12-09T00:41:04.731Z,100276.06
2023-12-09T00:43:32.439Z,100279.78
2023-12-09T00:46:00.165Z,100278.72
2023-12-09T00:48:28.154Z,100284.19
2023-12-09T00:50:55.995Z,100278.63
2023-12-09T00:53:23.679Z,100284.00
2023-12-09T00:55:54.155Z,100275.09
2023-12-09T00:58:23.201Z,100276.16
2023-12-09T01:00:50.969Z,100274.50
2023-12-09T01:03:18.771Z,100278.91
2023-12-09T01:05:46.681Z,100275.19
2023-12-09T01:08:14.582Z,100282.38
2023-12-09T01:10:42.242Z,100282.47
2023-12-09T01:13:10.150Z,100285.72
2023-12-09T01:15:39.451Z,100285.63
2023-12-09T01:18:07.217Z,100292.81
2023-12-09T01:20:34.904Z,100291.69
2023-12-09T01:23:02.760Z,100289.00
2023-12-09T01:25:30.405Z,100283.81
2023-12-09T01:27:58.058Z,100285.53
2023-12-09T01:30:25.746Z,100285.72
2023-12-09T01:32:54.975Z,100291.94
2023-12-09T01:35:22.797Z,100291.63
2023-12-09T01:37:50.475Z,100294.22
2023-12-09T01:40:18.256Z,100295.00
2023-12-09T01:42:46.161Z,100301.31
2023-12-09T01:45:14.015Z,100286.50
2023-12-09T01:47:43.529Z,100286.50
2023-12-09T01:50:13.227Z,100283.81
2023-12-09T01:52:41.268Z,100277.28
2023-12-09T01:55:11.753Z,100275.28
2023-12-09T01:57:39.929Z,100288.88
2023-12-09T02:00:09.328Z,100269.63
2023-12-09T02:02:37.124Z,100274.59
2023-12-09T02:05:05.939Z,100286.69
2023-12-09T02:07:35.634Z,100279.13
2023-12-09T02:10:04.469Z,100275.69
2023-12-09T02:12:39.105Z,100273.09
2023-12-09T02:15:10.234Z,100273.94
2023-12-09T02:17:45.158Z,100274.31
2023-12-09T02:20:13.466Z,100280.28
2023-12-09T02:22:43.009Z,100275.00
2023-12-09T02:25:12.365Z,100275.88
2023-12-09T02:27:45.889Z,100258.53
2023-12-09T02:30:21.694Z,100257.50
2023-12-09T02:32:51.461Z,100265.13
2023-12-09T02:35:21.234Z,100251.72
2023-12-09T02:37:50.278Z,100242.81
2023-12-09T02:40:20.603Z,100243.13
2023-12-09T02:42:50.397Z,100236.13
2023-12-09T02:45:20.417Z,100242.03
2023-12-09T02:47:48.324Z,100216.78
2023-12-09T02:50:16.482Z,100232.59
2023-12-09T02:52:44.453Z,100224.81
2023-12-09T02:55:13.535Z,100219.66
2023-12-09T02:57:42.549Z,100213.44
2023-12-09T03:00:11.375Z,100211.22
2023-12-09T03:02:39.115Z,100210.94
2023-12-09T03:05:07.114Z,100212.84
2023-12-09T03:07:34.820Z,100220.44
2023-12-09T03:10:02.437Z,100217.94
2023-12-09T03:12:30.352Z,100212.56
2023-12-09T03:14:59.586Z,100207.78
2023-12-09T03:17:27.303Z,100201.84
2023-12-09T03:19:55.013Z,100207.28
2023-12-09T03:22:22.632Z,100199.75
2023-12-09T03:24:50.393Z,100197.06
2023-12-09T03:27:18.017Z,100197.84
2023-12-09T03:29:45.714Z,100190.84
2023-12-09T03:32:15.059Z,100196.09
2023-12-09T03:34:45.204Z,100181.94
2023-12-09T03:37:12.989Z,100178.41
2023-12-09T03:39:40.740Z,100188.25
2023-12-09T03:42:08.453Z,100178.84
2023-12-09T03:44:36.188Z,100172.06
2023-12-09T03:47:09.441Z,100164.69
2023-12-09T03:49:43.768Z,100164.00
2023-12-09T03:52:11.486Z,100150.72
2023-12-09T03:54:40.202Z,100160.19
2023-12-09T03:57:07.913Z,100148.91
2023-12-09T03:59:35.629Z,100160.47
2023-12-09T04:02:03.319Z,100156.56
2023-12-09T04:04:31.314Z,100156.84
2023-12-09T04:07:00.337Z,100177.50
2023-12-09T04:09:28.121Z,100156.94
2023-12-09T04:11:55.867Z,100183.25
2023-12-09T04:14:23.541Z,100188.72
2023-12-09T04:16:51.213Z,100191.66
2023-12-09T04:19:18.971Z,100193.56
2023-12-09T04:21:46.733Z,100194.25
2023-12-09T04:24:15.746Z,100179.22
2023-12-09T04:26:43.511Z,100178.53
2023-12-09T04:29:11.280Z,100181.41
2023-12-09T04:31:39.133Z,100188.56
2023-12-09T04:34:06.827Z,100190.66
2023-12-09T04:36:34.704Z,100182.97
2023-12-09T04:39:02.424Z,100184.22
2023-12-09T04:41:31.489Z,100183.75
2023-12-09T04:43:59.102Z,100173.03
2023-12-09T04:46:27.345Z,100169.88
2023-12-09T04:48:55.134Z,100168.03
2023-12-09T04:51:22.849Z,100164.88
2023-12-09T04:53:51.723Z,100160.69
2023-12-09T04:56:19.424Z,100160.56
2023-12-09T04:58:48.527Z,100153.47
2023-12-09T05:01:16.295Z,100150.16
2023-12-09T05:03:44.109Z,100144.28
2023-12-09T05:06:11.937Z,100138.16
2023-12-09T05:08:43.134Z,100144.47
2023-12-09T05:11:11.271Z,100150.69
2023-12-09T05:13:38.992Z,100142.75
2023-12-09T05:16:08.515Z,100144.47
2023-12-09T05:18:36.512Z,100134.88
2023-12-09T05:21:06.199Z,100143.97
2023-12-09T05:23:34.665Z,100115.44
2023-12-09T05:26:02.357Z,100152.59
2023-12-09T05:28:31.257Z,100153.03
2023-12-09T05:30:59.483Z,100146.06
2023-12-09T05:33:28.672Z,100150.34
2023-12-09T05:35:56.387Z,100136.88
2023-12-09T05:38:24.058Z,100129.06
2023-12-09T05:40:51.700Z,100126.75
2023-12-09T05:43:19.385Z,100109.13
2023-12-09T05:45:47.255Z,100119.84
2023-12-09T05:48:15.142Z,100110.97
2023-12-09T05:50:44.240Z,100115.00
2023-12-09T05:53:11.927Z,100110.88
2023-12-09T05:55:39.611Z,100091.63
2023-12-09T05:58:07.973Z,100106.28
2023-12-09T06:00:37.129Z,100113.63
2023-12-09T06:03:05.184Z,100107.41
2023-12-09T06:05:32.933Z,100115.97
2023-12-09T06:08:02.079Z,100106.59
2023-12-09T06:10:29.726Z,100105.06
2023-12-09T06:12:57.409Z,100106.88
2023-12-09T06:15:25.182Z,100105.84
2023-12-09T06:17:54.308Z,100100.75
2023-12-09T06:20:22.443Z,100096.09
2023-12-09T06:22:50.133Z,100070.19
2023-12-09T06:25:19.508Z,100079.00
2023-12-09T06:27:47.193Z,100069.50
2023-12-09T06:30:15.361Z,100080.66
2023-12-09T06:32:44.773Z,100077.97
2023-12-09T06:35:12.616Z,100067.00
2023-12-09T06:37:40.275Z,100074.00
2023-12-09T06:40:09.651Z,100064.34
2023-12-09T06:42:39.369Z,100070.56
2023-12-09T06:45:08.133Z,100062.63
2023-12-09T06:47:36.264Z,100067.88
2023-12-09T06:50:04.213Z,100060.03
2023-12-09T06:52:31.856Z,100060.81
2023-12-09T06:54:59.774Z,100052.69
2023-12-09T06:57:28.315Z,100055.63
2023-12-09T06:59:57.424Z,100064.69
2023-12-09T07:02:25.391Z,100061.28
2023-12-09T07:04:53.782Z,100052.56
2023-12-09T07:07:22.566Z,100050.75
2023-12-09T07:09:50.439Z,100050.66
2023-12-09T07:12:18.143Z,100054.59
2023-12-09T07:14:45.828Z,100043.59
2023-12-09T07:17:14.922Z,100042.03
2023-12-09T07:19:43.923Z,100039.47
2023-12-09T07:22:11.670Z,100031.34
2023-12-09T07:24:39.428Z,100030.22
2023-12-09T07:27:07.146Z,100021.63
2023-12-09T07:29:34.825Z,100022.91
2023-12-09T07:32:02.784Z,100013.25
2023-12-09T07:34:31.910Z,100004.09
2023-12-09T07:36:59.647Z,100001.06
2023-12-09T07:39:27.339Z,100010.06
2023-12-09T07:41:55.229Z,100004.91
2023-12-09T07:44:22.981Z,99988.75
2023-12-09T07:46:51.933Z,99980.63
2023-12-09T07:49:19.664Z,99959.88
2023-12-09T07:51:48.717Z,99968.03
2023-12-09T07:54:16.706Z,99961.81
2023-12-09T07:56:44.460Z,99950.44
2023-12-09T07:59:12.144Z,99946.69
2023-12-09T08:01:41.395Z,99956.28
2023-12-09T08:04:09.159Z,99949.09
2023-12-09T08:06:36.954Z,99945.00
2023-12-09T08:09:06.045Z,99955.19
2023-12-09T08:11:33.824Z,99947.16
2023-12-09T08:14:01.505Z,99933.03
2023-12-09T08:16:29.186Z,99937.41
2023-12-09T08:18:57.092Z,99938.00
2023-12-09T08:21:25.917Z,99933.78
2023-12-09T08:23:55.392Z,99925.06
2023-12-09T08:26:24.451Z,99920.47
2023-12-09T08:28:52.151Z,99909.94
2023-12-09T08:31:19.834Z,99918.09
2023-12-09T08:33:47.653Z,99910.16
2023-12-09T08:36:15.639Z,99902.78
2023-12-09T08:38:43.348Z,99902.78
2023-12-09T08:41:11.008Z,99904.69
2023-12-09T08:43:40.130Z,99904.06
2023-12-09T08:46:07.798Z,99924.72
2023-12-09T08:48:35.722Z,99907.56
2023-12-09T08:51:04.708Z,99910.56
2023-12-09T08:53:32.853Z,99905.75
2023-12-09T08:56:00.540Z,99901.34
2023-12-09T08:58:28.216Z,99915.28
2023-12-09T09:00:57.331Z,99912.59
2023-12-09T09:03:25.284Z,99907.03
2023-12-09T09:05:53.146Z,99903.31
2023-12-09T09:08:20.845Z,99917.34
2023-12-09T09:10:48.584Z,99913.22
2023-12-09T09:13:16.226Z,99901.34
2023-12-09T09:15:44.193Z,99902.81
2023-12-09T09:18:14.831Z,99885.91
2023-12-09T09:20:43.943Z,99896.63
2023-12-09T09:23:11.864Z,99886.66
2023-12-09T09:25:39.568Z,99893.66
2023-12-09T09:28:07.611Z,99875.34
2023-12-09T09:30:35.959Z,99888.28
2023-12-09T09:33:03.807Z,99875.38
2023-12-09T09:35:34.214Z,99854.06
2023-12-09T09:38:01.856Z,99850.09
2023-12-09T09:40:29.730Z,99846.84
2023-12-09T09:42:58.859Z,99850.09
2023-12-09T09:45:31.500Z,99812.44
2023-12-09T09:48:06.612Z,99837.97
2023-12-09T09:50:43.045Z,99833.56
2023-12-09T09:53:13.231Z,99821.41
2023-12-09T09:55:42.477Z,99812.06
2023-12-09T09:58:10.462Z,99801.00
2023-12-09T10:00:39.857Z,99789.41
2023-12-09T10:03:07.985Z,99783.72
2023-12-09T10:05:37.130Z,99764.72
2023-12-09T10:08:06.552Z,99764.28
2023-12-09T10:10:35.694Z,99754.72
2023-12-09T10:13:03.533Z,99756.44
2023-12-09T10:15:32.892Z,99742.06
2023-12-09T10:18:04.568Z,99737.34
2023-12-09T10:20:32.600Z,99734.88
2023-12-09T10:23:02.372Z,99726.59
2023-12-09T10:25:30.319Z,99716.72
2023-12-09T10:27:59.501Z,99718.66
2023-12-09T10:30:27.340Z,99709.22
2023-12-09T10:32:55.447Z,99706.94
2023-12-09T10:35:23.487Z,99711.56
2023-12-09T10:37:51.691Z,99696.31
2023-12-09T10:40:23.706Z,99688.91
2023-12-09T10:42:53.096Z,99693.31
2023-12-09T10:45:20.894Z,99689.03
2023-12-09T10:47:49.371Z,99663.25
2023-12-09T10:50:18.040Z,99670.22
2023-12-09T10:52:45.744Z,99665.41
2023-12-09T10:55:13.583Z,99659.31
2023-12-09T10:57:44.559Z,99652.50
2023-12-09T11:00:16.356Z,99652.63
2023-12-09T11:02:45.703Z,99642.50
2023-12-09T11:05:14.170Z,99633.88
2023-12-09T11:07:43.633Z,99631.06
2023-12-09T11:10:12.263Z,99616.06
2023-12-09T11:12:40.051Z,99615.19
2023-12-09T11:15:19.451Z,99598.47
2023-12-09T11:17:51.141Z,99594.81
2023-12-09T11:20:21.673Z,99583.22
2023-12-09T11:22:49.826Z,99577.72
2023-12-09T11:25:23.625Z,99569.91
2023-12-09T11:27:52.565Z,99577.13
2023-12-09T11:30:36.095Z,99536.59
2023-12-09T11:33:05.500Z,99524.88
2023-12-09T11:35:35.261Z,99508.28
2023-12-09T11:38:05.848Z,99514.41
2023-12-09T11:40:34.570Z,99500.13
2023-12-09T11:43:04.399Z,99491.56
2023-12-09T11:45:32.218Z,99481.41
2023-12-09T11:48:04.793Z,99473.38
2023-12-09T11:50:32.566Z,99467.03
2023-12-09T11:53:01.032Z,99448.22
2023-12-09T11:55:28.707Z,99435.53
2023-12-09T11:57:56.405Z,99434.53
2023-12-09T12:00:24.190Z,99432.13
2023-12-09T12:02:51.940Z,99433.09
2023-12-09T12:05:21.293Z,99419.66
2023-12-09T12:07:49.156Z,99412.69
2023-12-09T12:10:17.027Z,99399.88
2023-12-09T12:12:45.827Z,99392.56
2023-12-09T12:15:14.589Z,99394.25
2023-12-09T12:17:43.335Z,99397.06
2023-12-09T12:20:13.484Z,99389.25
2023-12-09T12:22:43.361Z,99368.03
2023-12-09T12:25:11.734Z,99378.16
2023-12-09T12:27:47.084Z,99363.00
2023-12-09T12:30:15.727Z,99363.13
2023-12-09T12:32:44.400Z,99329.84
2023-12-09T12:35:12.714Z,99346.06
2023-12-09T12:37:42.594Z,99322.50
2023-12-09T12:40:13.500Z,99309.91
2023-12-09T12:42:43.689Z,99290.25
2023-12-09T12:45:19.319Z,99283.44
2023-12-09T12:47:47.378Z,99287.56
2023-12-09T12:50:15.673Z,99280.50
2023-12-09T12:52:46.983Z,99259.88
2023-12-09T12:55:14.792Z,99250.97
2023-12-09T12:57:42.930Z,99231.06
2023-12-09T13:00:13.073Z,99216.78
2023-12-09T13:02:41.080Z,99209.19
2023-12-09T13:05:09.265Z,99202.84
2023-12-09T13:07:37.063Z,99189.16
2023-12-09T13:10:07.599Z,99172.38
2023-12-09T13:12:35.860Z,99150.16
2023-12-09T13:15:04.057Z,99169.00
2023-12-09T13:17:31.987Z,99171.41
2023-12-09T13:19:59.869Z,99157.97
2023-12-09T13:22:27.979Z,99133.78
2023-12-09T13:24:55.982Z,99133.78
2023-12-09T13:27:25.457Z,99114.66
2023-12-09T13:29:53.239Z,99109.16
2023-12-09T13:32:20.970Z,99103.78
2023-12-09T13:34:48.782Z,99097.97
2023-12-09T13:37:17.030Z,99082.38
2023-12-09T13:39:45.058Z,99075.75
2023-12-09T13:42:13.873Z,99050.00
2023-12-09T13:44:43.166Z,99053.53
2023-12-09T13:47:10.935Z,99045.88
2023-12-09T13:49:38.862Z,99021.94
2023-12-09T13:52:06.970Z,99020.84
2023-12-09T13:54:37.574Z,99005.53
2023-12-09T13:57:05.520Z,99004.56
2023-12-09T13:59:33.401Z,99011.91
2023-12-09T14:02:02.668Z,98999.47
2023-12-09T14:04:30.508Z,99001.03
2023-12-09T14:06:58.322Z,98999.31
2023-12-09T14:09:26.117Z,98991.66
2023-12-09T14:11:53.899Z,98982.63
2023-12-09T14:14:21.721Z,98975.94
2023-12-09T14:16:49.559Z,98931.59
2023-12-09T14:19:18.896Z,98945.94
2023-12-09T14:21:46.728Z,98957.50
2023-12-09T14:24:14.613Z,98938.13
2023-12-09T14:26:42.391Z,98934.53
2023-12-09T14:29:10.140Z,98931.69
2023-12-09T14:31:38.784Z,98921.53
2023-12-09T14:34:07.307Z,98894.34
2023-12-09T14:36:36.726Z,98905.25
2023-12-09T14:39:04.740Z,98880.13
2023-12-09T14:41:32.576Z,98884.25
2023-12-09T14:44:06.095Z,98879.94
2023-12-09T14:46:36.872Z,98868.81
2023-12-09T14:49:05.323Z,98851.94
2023-12-09T14:51:40.941Z,98837.91
2023-12-09T14:54:15.451Z,98833.13
2023-12-09T14:56:44.941Z,98827.69
2023-12-09T14:59:13.146Z,98803.25
2023-12-09T15:01:41.227Z,98792.38
2023-12-09T15:04:09.222Z,98776.00
2023-12-09T15:06:37.141Z,98762.19
2023-12-09T15:09:05.388Z,98763.84
2023-12-09T15:11:34.622Z,98770.19
2023-12-09T15:14:02.527Z,98754.47
2023-12-09T15:16:30.481Z,98746.44
2023-12-09T15:18:58.393Z,98735.56
2023-12-09T15:21:26.365Z,98733.25
2023-12-09T15:23:54.243Z,98723.00
2023-12-09T15:26:22.065Z,98704.09
2023-12-09T15:28:54.412Z,98685.94
2023-12-09T15:31:22.285Z,98658.00
2023-12-09T15:33:50.276Z,98645.19
2023-12-09T15:36:18.625Z,98659.25
2023-12-09T15:38:46.881Z,98641.22
2023-12-09T15:41:14.642Z,98645.13
2023-12-09T15:43:42.465Z,98637.28
2023-12-09T15:46:11.774Z,98632.53
2023-12-09T15:48:41.217Z,98607.56
2023-12-09T15:51:09.118Z,98601.97
2023-12-09T15:53:38.599Z,98592.09
2023-12-09T15:56:07.800Z,98594.91
2023-12-09T15:58:36.096Z,98578.84
2023-12-09T16:01:04.451Z,98563.63
2023-12-09T16:03:33.925Z,98568.13
2023-12-09T16:06:02.076Z,98559.38
2023-12-09T16:08:29.909Z,98531.47
2023-12-09T16:10:57.668Z,98543.28
2023-12-09T16:13:26.051Z,98557.69
2023-12-09T16:15:54.201Z,98537.38
2023-12-09T16:18:22.229Z,98539.78
2023-12-09T16:20:51.563Z,98529.06
2023-12-09T16:23:19.324Z,98517.94
2023-12-09T16:25:47.093Z,98531.22
2023-12-09T16:28:14.975Z,98530.09
2023-12-09T16:30:42.771Z,98511.47
2023-12-09T16:33:10.659Z,98482.16
2023-12-09T16:35:38.776Z,98436.47
2023-12-09T16:38:10.622Z,98475.41
2023-12-09T16:40:38.605Z,98503.19
2023-12-09T16:43:06.463Z,98471.03
2023-12-09T16:45:34.254Z,98446.66
2023-12-09T16:48:02.999Z,98424.34
2023-12-09T16:50:30.875Z,98469.34
2023-12-09T16:52:58.608Z,98457.09
2023-12-09T16:55:27.811Z,98459.63
2023-12-09T16:57:55.832Z,98433.28
2023-12-09T17:00:23.728Z,98412.13
2023-12-09T17:02:51.567Z,98421.00
2023-12-09T17:05:19.468Z,98418.19
2023-12-09T17:07:47.285Z,98404.91
2023-12-09T17:10:15.171Z,98423.41
2023-12-09T17:12:44.305Z,98414.69
2023-12-09T17:15:12.500Z,98401.00
2023-12-09T17:17:40.440Z,98423.88
2023-12-09T17:20:09.910Z,98434.44
2023-12-09T17:22:37.678Z,98431.19
2023-12-09T17:25:05.962Z,98424.72
2023-12-09T17:27:33.957Z,98428.06
2023-12-09T17:30:03.304Z,98453.47
2023-12-09T17:32:31.247Z,98429.47
2023-12-09T17:34:59.249Z,98415.97
2023-12-09T17:37:27.063Z,98412.31
2023-12-09T17:39:54.983Z,98427.06
2023-12-09T17:42:22.864Z,98436.69
2023-12-09T17:44:50.649Z,98431.19
2023-12-09T17:47:19.752Z,98417.78
2023-12-09T17:49:47.590Z,98403.41
2023-12-09T17:52:15.377Z,98403.28
2023-12-09T17:54:43.219Z,98393.09
2023-12-09T17:57:11.742Z,98392.97
2023-12-09T17:59:38.799Z,98424.13
2023-12-09T18:02:07.152Z,98403.81
2023-12-09T18:04:36.267Z,98419.34
2023-12-09T18:07:04.261Z,98409.47
2023-12-09T18:09:32.052Z,98407.78
2023-12-09T18:12:00.085Z,98395.94
2023-12-09T18:14:27.912Z,98393.81
2023-12-09T18:16:57.253Z,98397.91
2023-12-09T18:19:25.410Z,98399.88
2023-12-09T18:21:54.763Z,98389.03
2023-12-09T18:24:22.604Z,98387.47
2023-12-09T18:26:51.008Z,98367.72
2023-12-09T18:29:18.800Z,98379.44
2023-12-09T18:31:46.670Z,98388.31
2023-12-09T18:34:14.666Z,98372.94
2023-12-09T18:36:43.244Z,98395.50
2023-12-09T18:39:12.564Z,98405.81
2023-12-09T18:41:40.345Z,98400.16
2023-12-09T18:44:08.162Z,98395.22
2023-12-09T18:46:35.928Z,98393.66
2023-12-09T18:49:03.734Z,98395.34
2023-12-09T18:51:31.628Z,98391.44
2023-12-09T18:53:59.393Z,98400.44
2023-12-09T18:56:28.722Z,98352.22
2023-12-09T18:58:56.503Z,98406.50
2023-12-09T19:01:24.379Z,98415.38
2023-12-09T19:03:52.664Z,98423.41
2023-12-09T19:06:20.670Z,98416.75
2023-12-09T19:08:48.441Z,98465.44
2023-12-09T19:11:16.233Z,98418.97
2023-12-09T19:13:45.718Z,98416.16
2023-12-09T19:16:13.763Z,98420.81
2023-12-09T19:18:42.525Z,98422.78
2023-12-09T19:21:10.381Z,98414.34
2023-12-09T19:23:38.169Z,98409.81
2023-12-09T19:26:06.329Z,98431.41
2023-12-09T19:28:34.084Z,98449.72
2023-12-09T19:31:03.239Z,98459.47
2023-12-09T19:33:31.178Z,98462.16
2023-12-09T19:35:59.604Z,98447.91
2023-12-09T19:38:27.415Z,98454.81
2023-12-09T19:40:55.132Z,98456.38
2023-12-09T19:43:22.921Z,98443.38
2023-12-09T19:45:51.287Z,98441.53
2023-12-09T19:48:20.724Z,98451.53
2023-12-09T19:50:48.685Z,98449.53
2023-12-09T19:53:16.633Z,98452.22
2023-12-09T19:55:44.398Z,98449.81
2023-12-09T19:58:12.152Z,98451.19
2023-12-09T20:00:40.992Z,98457.28
2023-12-09T20:03:09.931Z,98465.19
2023-12-09T20:05:39.095Z,98464.44
2023-12-09T20:08:07.289Z,98468.44
2023-12-09T20:10:35.066Z,98466.81
2023-12-09T20:13:02.786Z,98474.03
2023-12-09T20:15:31.099Z,98480.97
2023-12-09T20:18:00.152Z,98485.47
2023-12-09T20:20:30.227Z,98483.22
2023-12-09T20:23:00.338Z,98505.53
2023-12-09T20:25:28.125Z,98529.84
2023-12-09T20:27:57.723Z,98529.13
2023-12-09T20:30:25.533Z,98528.53
2023-12-09T20:32:53.371Z,98532.06
2023-12-09T20:35:21.166Z,98550.88
2023-12-09T20:37:49.229Z,98560.94
2023-12-09T20:40:18.508Z,98566.31
2023-12-09T20:42:46.356Z,98564.56
2023-12-09T20:45:14.703Z,98575.59
2023-12-09T20:47:42.578Z,98580.69
2023-12-09T20:50:11.284Z,98592.44
2023-12-09T20:52:39.345Z,98567.44
2023-12-09T20:55:08.264Z,98605.72
2023-12-09T20:57:37.467Z,98618.72
2023-12-09T21:00:06.692Z,98592.63
2023-12-09T21:02:34.562Z,98613.25
2023-12-09T21:05:04.869Z,98629.63
2023-12-09T21:07:33.456Z,98635.13
2023-12-09T21:10:01.228Z,98647.31
2023-12-09T21:12:29.563Z,98652.97
2023-12-09T21:14:59.037Z,98660.59
2023-12-09T21:17:26.888Z,98669.94
2023-12-09T21:19:54.851Z,98676.16
2023-12-09T21:22:22.605Z,98678.84
2023-12-09T21:24:50.471Z,98673.19
2023-12-09T21:27:18.392Z,98683.94
2023-12-09T21:29:46.188Z,98678.28
2023-12-09T21:32:15.311Z,98680.25
2023-12-09T21:34:43.223Z,98691.56
2023-12-09T21:37:11.043Z,98692.41
2023-12-09T21:39:39.150Z,98688.44
2023-12-09T21:42:08.381Z,98700.34
2023-12-09T21:44:36.509Z,98707.53
2023-12-09T21:47:03.467Z,98641.00
2023-12-09T21:49:32.704Z,98714.06
2023-12-09T21:52:00.558Z,98720.31
2023-12-09T21:54:28.351Z,98732.16
2023-12-09T21:56:56.190Z,98736.28
2023-12-09T21:59:23.935Z,98741.66
2023-12-09T22:01:52.145Z,98746.31
2023-12-09T22:04:20.113Z,98758.03
2023-12-09T22:06:49.305Z,98770.50
2023-12-09T22:09:17.061Z,98775.16
2023-12-09T22:11:44.859Z,98793.81
2023-12-09T22:14:12.902Z,98786.31
2023-12-09T22:16:42.524Z,98787.75
2023-12-09T22:19:10.377Z,98795.09
2023-12-09T22:21:41.058Z,98804.16
2023-12-09T22:24:10.446Z,98809.53
2023-12-09T22:26:42.879Z,98805.56
2023-12-09T22:29:10.705Z,98819.84
2023-12-09T22:31:42.097Z,98824.50
2023-12-09T22:34:10.838Z,98837.50
2023-12-09T22:36:38.830Z,98846.56
2023-12-09T22:39:09.102Z,98857.59
2023-12-09T22:41:38.376Z,98863.81
2023-12-09T22:44:06.253Z,98857.28
2023-12-09T22:46:34.528Z,98887.81
2023-12-09T22:49:02.949Z,98885.19
2023-12-09T22:51:31.582Z,98893.06
2023-12-09T22:54:00.283Z,98898.88
2023-12-09T22:56:29.996Z,98905.25
2023-12-09T22:59:00.431Z,98894.59
2023-12-09T23:01:31.143Z,98879.31
2023-12-09T23:03:59.052Z,98924.38
2023-12-09T23:06:26.972Z,98929.94
2023-12-09T23:08:55.559Z,98925.78
2023-12-09T23:11:23.403Z,98933.84
2023-12-09T23:13:51.226Z,98934.56
2023-12-09T23:16:20.335Z,98938.25
2023-12-09T23:18:48.299Z,98944.94
2023-12-09T23:21:16.320Z,98950.00
2023-12-09T23:23:44.376Z,98954.63
2023-12-09T23:26:12.219Z,98959.59
2023-12-09T23:28:39.978Z,98894.44
2023-12-09T23:31:07.966Z,98959.59
2023-12-09T23:33:37.261Z,98966.59
2023-12-09T23:36:05.762Z,98970.34
2023-12-09T23:38:33.521Z,98970.50
2023-12-09T23:41:01.576Z,98976.47
2023-12-09T23:43:29.462Z,98958.59
2023-12-09T23:45:57.206Z,98989.66
2023-12-09T23:48:25.123Z,98995.44
2023-12-09T23:50:54.457Z,99003.81
2023-12-09T23:53:22.214Z,98983.28
2023-12-09T23:55:49.989Z,98997.72
2023-12-09T23:58:17.957Z,98996.69
